sensor_id;sensor_type;location;lat;lon;timestamp;pressure;altitude;pressure_sealevel;temperature;humidity
71567;BME280;59403;47.456;19.120;2023-02-23T00:00:24;100461.69;;;7.39;82.15
71567;BME280;59403;47.456;19.120;2023-02-23T00:02:53;100459.91;;;7.40;81.59
71567;BME280;59403;47.456;19.120;2023-02-23T00:05:23;100460.16;;;7.37;81.36
71567;BME280;59403;47.456;19.120;2023-02-23T00:07:50;100453.09;;;7.37;81.73
71567;BME280;59403;47.456;19.120;2023-02-23T00:10:19;100454.78;;;7.38;81.40
71567;BME280;59403;47.456;19.120;2023-02-23T00:12:47;100456.56;;;7.38;81.67
71567;BME280;59403;47.456;19.120;2023-02-23T00:15:15;100465.41;;;7.37;81.40
71567;BME280;59403;47.456;19.120;2023-02-23T00:17:42;100463.63;;;7.37;81.40
71567;BME280;59403;47.456;19.120;2023-02-23T00:20:12;100466.25;;;7.37;81.27
71567;BME280;59403;47.456;19.120;2023-02-23T00:22:41;100461.97;;;7.36;81.51
71567;BME280;59403;47.456;19.120;2023-02-23T00:25:09;100459.56;;;7.33;81.44
71567;BME280;59403;47.456;19.120;2023-02-23T00:27:37;100462.22;;;7.33;81.46
71567;BME280;59403;47.456;19.120;2023-02-23T00:30:10;100465.97;;;7.31;81.45
71567;BME280;59403;47.456;19.120;2023-02-23T00:32:39;100466.25;;;7.28;82.01
71567;BME280;59403;47.456;19.120;2023-02-23T00:35:07;100462.06;;;7.25;81.52
71567;BME280;59403;47.456;19.120;2023-02-23T00:37:41;100465.41;;;7.27;81.39
71567;BME280;59403;47.456;19.120;2023-02-23T00:40:10;100464.56;;;7.27;81.38
71567;BME280;59403;47.456;19.120;2023-02-23T00:42:39;100466.38;;;7.26;81.28
71567;BME280;59403;47.456;19.120;2023-02-23T00:45:07;100462.19;;;7.24;81.72
71567;BME280;59403;47.456;19.120;2023-02-23T00:47:38;100467.47;;;7.24;81.76
71567;BME280;59403;47.456;19.120;2023-02-23T00:50:07;100467.59;;;7.22;81.60
71567;BME280;59403;47.456;19.120;2023-02-23T00:52:37;100471.19;;;7.21;82.03
71567;BME280;59403;47.456;19.120;2023-02-23T00:55:05;100465.25;;;7.19;81.95
71567;BME280;59403;47.456;19.120;2023-02-23T00:57:33;100466.34;;;7.17;82.05
71567;BME280;59403;47.456;19.120;2023-02-23T01:00:00;100475.47;;;7.13;81.80
71567;BME280;59403;47.456;19.120;2023-02-23T01:02:39;100463.13;;;7.13;82.11
71567;BME280;59403;47.456;19.120;2023-02-23T01:05:07;100475.59;;;7.11;82.25
71567;BME280;59403;47.456;19.120;2023-02-23T01:07:35;100467.84;;;7.10;81.90
71567;BME280;59403;47.456;19.120;2023-02-23T01:10:02;100466.03;;;7.10;82.09
71567;BME280;59403;47.456;19.120;2023-02-23T01:12:44;100468.09;;;7.07;81.78
71567;BME280;59403;47.456;19.120;2023-02-23T01:15:10;100480.69;;;7.03;81.24
71567;BME280;59403;47.456;19.120;2023-02-23T01:17:39;100468.50;;;7.02;81.26
71567;BME280;59403;47.456;19.120;2023-02-23T01:20:08;100473.75;;;7.02;81.34
71567;BME280;59403;47.456;19.120;2023-02-23T01:22:40;100474.03;;;6.99;80.91
71567;BME280;59403;47.456;19.120;2023-02-23T01:25:08;100473.31;;;6.97;81.48
71567;BME280;59403;47.456;19.120;2023-02-23T01:27:37;100472.62;;;6.95;81.48
71567;BME280;59403;47.456;19.120;2023-02-23T01:30:04;100471.66;;;6.96;81.35
71567;BME280;59403;47.456;19.120;2023-02-23T01:32:33;100470.97;;;6.94;81.18
71567;BME280;59403;47.456;19.120;2023-02-23T01:35:02;100475.94;;;6.97;82.04
71567;BME280;59403;47.456;19.120;2023-02-23T01:37:30;100469.03;;;6.96;81.40
71567;BME280;59403;47.456;19.120;2023-02-23T01:39:57;100468.06;;;6.97;81.44
71567;BME280;59403;47.456;19.120;2023-02-23T01:42:24;100469.03;;;6.96;81.32
71567;BME280;59403;47.456;19.120;2023-02-23T01:45:26;100468.06;;;6.97;81.23
71567;BME280;59403;47.456;19.120;2023-02-23T01:47:55;100462.22;;;6.93;81.12
71567;BME280;59403;47.456;19.120;2023-02-23T01:50:25;100458.50;;;6.96;81.25
71567;BME280;59403;47.456;19.120;2023-02-23T01:52:53;100464.72;;;6.95;81.50
71567;BME280;59403;47.456;19.120;2023-02-23T01:55:22;100465.41;;;6.97;81.69
71567;BME280;59403;47.456;19.120;2023-02-23T01:57:53;100468.91;;;6.98;81.48
71567;BME280;59403;47.456;19.120;2023-02-23T02:00:23;100459.22;;;6.98;81.35
71567;BME280;59403;47.456;19.120;2023-02-23T06:15:59;100522.97;;;6.40;80.44
71567;BME280;59403;47.456;19.120;2023-02-23T06:18:27;100523.69;;;6.42;80.71
71567;BME280;59403;47.456;19.120;2023-02-23T06:20:54;100525.37;;;6.43;79.53
71567;BME280;59403;47.456;19.120;2023-02-23T06:23:25;100532.56;;;6.41;79.10
71567;BME280;59403;47.456;19.120;2023-02-23T06:25:51;100531.59;;;6.42;79.23
71567;BME280;59403;47.456;19.120;2023-02-23T06:28:18;100538.53;;;6.43;80.13
71567;BME280;59403;47.456;19.120;2023-02-23T06:30:45;100542.69;;;6.45;80.43
71567;BME280;59403;47.456;19.120;2023-02-23T06:33:14;100548.78;;;6.46;79.68
71567;BME280;59403;47.456;19.120;2023-02-23T06:35:41;100551.44;;;6.46;79.51
71567;BME280;59403;47.456;19.120;2023-02-23T06:38:08;100551.56;;;6.44;78.97
71567;BME280;59403;47.456;19.120;2023-02-23T06:40:36;100545.31;;;6.45;79.59
71567;BME280;59403;47.456;19.120;2023-02-23T06:43:03;100551.28;;;6.47;79.43
71567;BME280;59403;47.456;19.120;2023-02-23T06:45:31;100557.50;;;6.46;79.06
71567;BME280;59403;47.456;19.120;2023-02-23T06:47:58;100556.56;;;6.47;78.66
71567;BME280;59403;47.456;19.120;2023-02-23T06:50:27;100559.19;;;6.47;78.64
71567;BME280;59403;47.456;19.120;2023-02-23T06:52:54;100563.34;;;6.50;78.89
71567;BME280;59403;47.456;19.120;2023-02-23T06:55:22;100562.25;;;6.52;78.58
71567;BME280;59403;47.456;19.120;2023-02-23T06:57:49;100561.06;;;6.56;78.30
71567;BME280;59403;47.456;19.120;2023-02-23T07:00:18;100563.44;;;6.59;78.42
71567;BME280;59403;47.456;19.120;2023-02-23T07:02:45;100564.00;;;6.63;78.49
71567;BME280;59403;47.456;19.120;2023-02-23T07:05:12;100564.00;;;6.63;77.67
71567;BME280;59403;47.456;19.120;2023-02-23T07:07:40;100568.28;;;6.64;77.46
71567;BME280;59403;47.456;19.120;2023-02-23T07:10:09;100565.53;;;6.65;77.41
71567;BME280;59403;47.456;19.120;2023-02-23T07:12:36;100568.50;;;6.72;77.80
71567;BME280;59403;47.456;19.120;2023-02-23T07:15:06;100576.00;;;6.76;77.46
71567;BME280;59403;47.456;19.120;2023-02-23T07:17:34;100570.47;;;6.79;77.67
71567;BME280;59403;47.456;19.120;2023-02-23T07:20:01;100573.44;;;6.86;78.13
71567;BME280;59403;47.456;19.120;2023-02-23T07:22:28;100575.50;;;6.82;76.02
71567;BME280;59403;47.456;19.120;2023-02-23T07:24:57;100574.41;;;6.85;76.60
71567;BME280;59403;47.456;19.120;2023-02-23T07:27:24;100576.09;;;6.86;76.78
71567;BME280;59403;47.456;19.120;2023-02-23T07:29:52;100578.94;;;6.83;76.08
71567;BME280;59403;47.456;19.120;2023-02-23T07:32:19;100578.28;;;6.81;75.40
71567;BME280;59403;47.456;19.120;2023-02-23T07:34:45;100586.47;;;6.87;76.36
71567;BME280;59403;47.456;19.120;2023-02-23T07:37:12;100582.59;;;6.91;76.34
71567;BME280;59403;47.456;19.120;2023-02-23T07:39:39;100580.06;;;6.80;75.06
71567;BME280;59403;47.456;19.120;2023-02-23T07:42:08;100584.94;;;6.85;75.32
71567;BME280;59403;47.456;19.120;2023-02-23T07:44:34;100582.87;;;6.88;75.19
71567;BME280;59403;47.456;19.120;2023-02-23T07:47:02;100578.75;;;6.96;75.44
71567;BME280;59403;47.456;19.120;2023-02-23T07:49:29;100581.12;;;6.99;75.29
71567;BME280;59403;47.456;19.120;2023-02-23T07:51:57;100584.09;;;7.05;75.47
71567;BME280;59403;47.456;19.120;2023-02-23T07:54:24;100583.13;;;7.06;74.95
71567;BME280;59403;47.456;19.120;2023-02-23T07:56:51;100583.69;;;7.10;74.20
71567;BME280;59403;47.456;19.120;2023-02-23T07:59:19;100575.81;;;7.10;74.42
71567;BME280;59403;47.456;19.120;2023-02-23T08:01:46;100578.16;;;7.13;74.09
71567;BME280;59403;47.456;19.120;2023-02-23T08:04:13;100581.50;;;7.15;73.40
71567;BME280;59403;47.456;19.120;2023-02-23T08:06:40;100578.38;;;7.21;73.46
71567;BME280;59403;47.456;19.120;2023-02-23T08:09:07;100586.50;;;7.18;73.94
71567;BME280;59403;47.456;19.120;2023-02-23T08:11:35;100584.22;;;7.24;73.70
71567;BME280;59403;47.456;19.120;2023-02-23T08:14:02;100588.94;;;7.30;73.39
71567;BME280;59403;47.456;19.120;2023-02-23T08:16:32;100587.84;;;7.33;73.58
71567;BME280;59403;47.456;19.120;2023-02-23T08:18:59;100588.56;;;7.35;73.14
71567;BME280;59403;47.456;19.120;2023-02-23T08:21:27;100583.16;;;7.36;73.32
71567;BME280;59403;47.456;19.120;2023-02-23T08:23:55;100575.31;;;7.25;72.42
71567;BME280;59403;47.456;19.120;2023-02-23T08:26:22;100594.78;;;7.34;71.96
71567;BME280;59403;47.456;19.120;2023-02-23T08:28:50;100593.13;;;7.33;71.91
71567;BME280;59403;47.456;19.120;2023-02-23T08:31:17;100600.63;;;7.37;71.54
71567;BME280;59403;47.456;19.120;2023-02-23T08:33:48;100586.34;;;7.40;71.26
71567;BME280;59403;47.456;19.120;2023-02-23T08:36:15;100601.62;;;7.46;71.09
71567;BME280;59403;47.456;19.120;2023-02-23T08:38:42;100598.19;;;7.55;71.74
71567;BME280;59403;47.456;19.120;2023-02-23T08:41:09;100597.34;;;7.54;71.40
71567;BME280;59403;47.456;19.120;2023-02-23T08:43:36;100597.53;;;7.62;70.93
71567;BME280;59403;47.456;19.120;2023-02-23T08:46:04;100603.19;;;7.58;70.77
71567;BME280;59403;47.456;19.120;2023-02-23T08:48:31;100605.19;;;7.65;70.82
71567;BME280;59403;47.456;19.120;2023-02-23T08:51:00;100604.59;;;7.62;69.94
71567;BME280;59403;47.456;19.120;2023-02-23T08:53:28;100606.84;;;7.66;70.81
71567;BME280;59403;47.456;19.120;2023-02-23T08:55:58;100606.84;;;7.66;70.83
71567;BME280;59403;47.456;19.120;2023-02-23T08:58:26;100611.16;;;7.67;70.06
71567;BME280;59403;47.456;19.120;2023-02-23T09:00:53;100602.03;;;7.71;70.53
71567;BME280;59403;47.456;19.120;2023-02-23T09:03:21;100610.37;;;7.76;70.19
71567;BME280;59403;47.456;19.120;2023-02-23T09:05:48;100607.59;;;7.78;70.46
71567;BME280;59403;47.456;19.120;2023-02-23T09:08:18;100611.59;;;7.82;70.60
71567;BME280;59403;47.456;19.120;2023-02-23T09:10:45;100604.97;;;7.87;70.28
71567;BME280;59403;47.456;19.120;2023-02-23T09:13:12;100617.91;;;7.90;70.16
71567;BME280;59403;47.456;19.120;2023-02-23T09:15:40;100614.94;;;7.74;69.09
71567;BME280;59403;47.456;19.120;2023-02-23T09:18:08;100610.00;;;7.90;69.75
71567;BME280;59403;47.456;19.120;2023-02-23T09:20:35;100618.62;;;8.02;69.99
71567;BME280;59403;47.456;19.120;2023-02-23T09:23:06;100615.00;;;7.93;69.87
71567;BME280;59403;47.456;19.120;2023-02-23T09:25:38;100602.22;;;8.08;70.29
71567;BME280;59403;47.456;19.120;2023-02-23T09:28:08;100610.31;;;8.16;69.34
71567;BME280;59403;47.456;19.120;2023-02-23T09:30:37;100609.75;;;8.22;68.55
71567;BME280;59403;47.456;19.120;2023-02-23T09:33:04;100610.34;;;8.26;69.16
71567;BME280;59403;47.456;19.120;2023-02-23T09:35:32;100610.78;;;8.31;68.92
71567;BME280;59403;47.456;19.120;2023-02-23T09:38:01;100614.81;;;8.35;68.68
71567;BME280;59403;47.456;19.120;2023-02-23T09:40:42;100614.94;;;8.43;68.50
71567;BME280;59403;47.456;19.120;2023-02-23T09:43:12;100614.13;;;8.52;68.55
71567;BME280;59403;47.456;19.120;2023-02-23T09:45:42;100622.88;;;8.52;67.46
71567;BME280;59403;47.456;19.120;2023-02-23T09:48:15;100613.31;;;8.51;67.89
71567;BME280;59403;47.456;19.120;2023-02-23T09:50:46;100617.03;;;8.58;67.31
71567;BME280;59403;47.456;19.120;2023-02-23T09:53:26;100621.50;;;8.67;67.90
71567;BME280;59403;47.456;19.120;2023-02-23T09:55:57;100621.50;;;8.58;67.19
71567;BME280;59403;47.456;19.120;2023-02-23T09:58:26;100616.50;;;8.64;67.22
71567;BME280;59403;47.456;19.120;2023-02-23T10:01:15;100619.97;;;8.65;67.09
71567;BME280;59403;47.456;19.120;2023-02-23T10:03:50;100615.38;;;8.57;66.69
71567;BME280;59403;47.456;19.120;2023-02-23T10:06:20;100623.31;;;8.67;67.61
71567;BME280;59403;47.456;19.120;2023-02-23T10:08:58;100615.09;;;8.70;67.52
71567;BME280;59403;47.456;19.120;2023-02-23T10:11:33;100623.31;;;8.76;67.04
71567;BME280;59403;47.456;19.120;2023-02-23T10:14:30;100621.91;;;8.72;66.90
71567;BME280;59403;47.456;19.120;2023-02-23T10:17:10;100621.50;;;8.67;66.67
71567;BME280;59403;47.456;19.120;2023-02-23T10:19:52;100618.72;;;8.78;66.43
71567;BME280;59403;47.456;19.120;2023-02-23T10:22:20;100625.38;;;8.92;66.93
71567;BME280;59403;47.456;19.120;2023-02-23T10:24:51;100618.84;;;8.86;65.15
71567;BME280;59403;47.456;19.120;2023-02-23T10:27:25;100617.44;;;9.01;66.58
71567;BME280;59403;47.456;19.120;2023-02-23T10:29:55;100615.06;;;8.98;65.43
71567;BME280;59403;47.456;19.120;2023-02-23T10:32:34;100612.12;;;9.11;65.35
71567;BME280;59403;47.456;19.120;2023-02-23T10:35:09;100603.91;;;9.14;64.43
71567;BME280;59403;47.456;19.120;2023-02-23T10:37:38;100602.22;;;9.23;64.40
71567;BME280;59403;47.456;19.120;2023-02-23T10:40:05;100605.75;;;9.13;64.69
71567;BME280;59403;47.456;19.120;2023-02-23T10:42:34;100601.28;;;9.14;64.32
71567;BME280;59403;47.456;19.120;2023-02-23T10:45:01;100599.87;;;9.19;64.31
71567;BME280;59403;47.456;19.120;2023-02-23T10:47:30;100596.22;;;9.30;64.77
71567;BME280;59403;47.456;19.120;2023-02-23T10:49:58;100593.59;;;9.30;64.67
71567;BME280;59403;47.456;19.120;2023-02-23T10:54:56;100593.28;;;9.33;63.44
71567;BME280;59403;47.456;19.120;2023-02-23T10:57:25;100582.63;;;9.25;62.79
71567;BME280;59403;47.456;19.120;2023-02-23T11:00:05;100574.12;;;9.31;61.93
71567;BME280;59403;47.456;19.120;2023-02-23T11:02:33;100574.91;;;9.41;64.32
71567;BME280;59403;47.456;19.120;2023-02-23T11:05:02;100570.19;;;9.35;63.61
71567;BME280;59403;47.456;19.120;2023-02-23T11:07:31;100571.19;;;9.34;62.92
71567;BME280;59403;47.456;19.120;2023-02-23T11:10:14;100564.03;;;9.44;63.36
71567;BME280;59403;47.456;19.120;2023-02-23T11:12:46;100560.91;;;9.31;62.02
71567;BME280;59403;47.456;19.120;2023-02-23T11:15:26;100564.22;;;9.33;61.98
71567;BME280;59403;47.456;19.120;2023-02-23T11:17:55;100555.81;;;9.47;63.21
71567;BME280;59403;47.456;19.120;2023-02-23T11:20:27;100563.03;;;9.55;61.38
71567;BME280;59403;47.456;19.120;2023-02-23T11:22:55;100553.53;;;9.62;63.02
71567;BME280;59403;47.456;19.120;2023-02-23T11:25:26;100560.34;;;9.64;62.38
71567;BME280;59403;47.456;19.120;2023-02-23T11:27:55;100555.53;;;9.50;62.46
71567;BME280;59403;47.456;19.120;2023-02-23T11:30:29;100542.75;;;9.46;62.23
71567;BME280;59403;47.456;19.120;2023-02-23T11:32:58;100546.31;;;9.54;61.59
71567;BME280;59403;47.456;19.120;2023-02-23T11:35:36;100549.78;;;9.64;62.57
71567;BME280;59403;47.456;19.120;2023-02-23T11:38:15;100556.09;;;9.71;63.46
71567;BME280;59403;47.456;19.120;2023-02-23T11:40:57;100546.00;;;9.67;63.04
71567;BME280;59403;47.456;19.120;2023-02-23T11:43:25;100542.81;;;9.63;63.20
71567;BME280;59403;47.456;19.120;2023-02-23T11:45:56;100541.56;;;9.58;62.53
71567;BME280;59403;47.456;19.120;2023-02-23T11:48:26;100539.94;;;9.57;62.88
71567;BME280;59403;47.456;19.120;2023-02-23T11:50:56;100533.84;;;9.47;62.63
71567;BME280;59403;47.456;19.120;2023-02-23T11:53:27;100532.31;;;9.44;62.36
71567;BME280;59403;47.456;19.120;2023-02-23T11:55:58;100525.37;;;9.43;62.92
71567;BME280;59403;47.456;19.120;2023-02-23T11:58:35;100527.97;;;9.53;63.74
71567;BME280;59403;47.456;19.120;2023-02-23T12:01:06;100532.72;;;9.49;63.59
71567;BME280;59403;47.456;19.120;2023-02-23T12:03:37;100533.03;;;9.46;63.69
71567;BME280;59403;47.456;19.120;2023-02-23T12:06:08;100528.66;;;9.55;63.99
71567;BME280;59403;47.456;19.120;2023-02-23T12:08:39;100536.19;;;9.50;62.87
71567;BME280;59403;47.456;19.120;2023-02-23T12:11:12;100523.81;;;9.50;63.73
71567;BME280;59403;47.456;19.120;2023-02-23T12:13:42;100525.63;;;9.50;63.47
71567;BME280;59403;47.456;19.120;2023-02-23T12:16:16;100521.19;;;9.50;63.99
71567;BME280;59403;47.456;19.120;2023-02-23T12:18:46;100517.09;;;9.56;64.14
71567;BME280;59403;47.456;19.120;2023-02-23T12:21:24;100515.75;;;9.52;63.42
71567;BME280;59403;47.456;19.120;2023-02-23T12:24:09;100516.44;;;9.54;64.62
71567;BME280;59403;47.456;19.120;2023-02-23T12:26:44;100511.81;;;9.56;64.34
71567;BME280;59403;47.456;19.120;2023-02-23T12:29:18;100510.06;;;9.47;63.38
71567;BME280;59403;47.456;19.120;2023-02-23T12:31:52;100512.41;;;9.50;63.97
71567;BME280;59403;47.456;19.120;2023-02-23T12:34:27;100505.16;;;9.52;64.32
71567;BME280;59403;47.456;19.120;2023-02-23T12:36:59;100504.31;;;9.51;64.96
71567;BME280;59403;47.456;19.120;2023-02-23T12:39:34;100497.94;;;9.54;64.67
71567;BME280;59403;47.456;19.120;2023-02-23T12:42:06;100498.59;;;9.56;63.82
71567;BME280;59403;47.456;19.120;2023-02-23T12:44:39;100497.00;;;9.63;63.93
71567;BME280;59403;47.456;19.120;2023-02-23T12:47:20;100489.00;;;9.55;62.89
71567;BME280;59403;47.456;19.120;2023-02-23T12:49:51;100491.16;;;9.69;62.43
71567;BME280;59403;47.456;19.120;2023-02-23T12:52:26;100483.75;;;9.72;62.79
71567;BME280;59403;47.456;19.120;2023-02-23T12:54:55;100483.75;;;9.72;62.14
71567;BME280;59403;47.456;19.120;2023-02-23T12:57:38;100475.00;;;9.89;63.47
71567;BME280;59403;47.456;19.120;2023-02-23T13:00:25;100479.38;;;9.98;62.81
71567;BME280;59403;47.456;19.120;2023-02-23T13:03:27;100474.41;;;9.95;62.22
71567;BME280;59403;47.456;19.120;2023-02-23T13:06:03;100471.66;;;10.05;62.31
71567;BME280;59403;47.456;19.120;2023-02-23T13:08:48;100471.88;;;9.94;62.42
71567;BME280;59403;47.456;19.120;2023-02-23T13:11:31;100474.78;;;10.00;62.40
71567;BME280;59403;47.456;19.120;2023-02-23T13:14:11;100462.59;;;10.07;62.73
71567;BME280;59403;47.456;19.120;2023-02-23T13:16:46;100460.22;;;10.14;63.40
71567;BME280;59403;47.456;19.120;2023-02-23T13:19:17;100457.87;;;10.11;63.39
71567;BME280;59403;47.456;19.120;2023-02-23T13:21:51;100452.94;;;10.16;62.70
71567;BME280;59403;47.456;19.120;2023-02-23T13:24:23;100453.91;;;10.15;62.10
71567;BME280;59403;47.456;19.120;2023-02-23T13:26:56;100450.69;;;10.21;62.36
71567;BME280;59403;47.456;19.120;2023-02-23T13:29:31;100446.28;;;10.29;62.95
71567;BME280;59403;47.456;19.120;2023-02-23T13:32:01;100438.19;;;10.31;63.17
71567;BME280;59403;47.456;19.120;2023-02-23T13:34:33;100441.56;;;10.23;62.41
71567;BME280;59403;47.456;19.120;2023-02-23T13:37:04;100446.06;;;10.23;64.60
71567;BME280;59403;47.456;19.120;2023-02-23T13:39:43;100441.44;;;10.25;63.65
71567;BME280;59403;47.456;19.120;2023-02-23T13:42:22;100440.47;;;10.26;64.09
71567;BME280;59403;47.456;19.120;2023-02-23T13:45:00;100444.75;;;10.27;62.76
71567;BME280;59403;47.456;19.120;2023-02-23T13:47:35;100445.75;;;10.26;62.91
71567;BME280;59403;47.456;19.120;2023-02-23T13:50:15;100436.38;;;10.32;62.95
71567;BME280;59403;47.456;19.120;2023-02-23T13:52:47;100433.63;;;10.23;63.03
71567;BME280;59403;47.456;19.120;2023-02-23T13:55:38;100424.25;;;10.29;62.86
71567;BME280;59403;47.456;19.120;2023-02-23T13:58:14;100420.13;;;10.26;64.69
71567;BME280;59403;47.456;19.120;2023-02-23T14:00:42;100423.72;;;10.25;64.06
71567;BME280;59403;47.456;19.120;2023-02-23T14:03:21;100424.06;;;10.22;63.32
71567;BME280;59403;47.456;19.120;2023-02-23T14:05:54;100415.59;;;10.19;63.61
71567;BME280;59403;47.456;19.120;2023-02-23T14:08:27;100423.69;;;10.17;64.00
71567;BME280;59403;47.456;19.120;2023-02-23T14:10:57;100420.19;;;10.17;65.35
71567;BME280;59403;47.456;19.120;2023-02-23T14:13:27;100422.16;;;10.15;64.48
71567;BME280;59403;47.456;19.120;2023-02-23T14:16:12;100422.63;;;10.10;64.54
71567;BME280;59403;47.456;19.120;2023-02-23T14:18:53;100423.59;;;10.09;65.17
71567;BME280;59403;47.456;19.120;2023-02-23T14:21:28;100421.34;;;10.14;65.51
71567;BME280;59403;47.456;19.120;2023-02-23T14:24:13;100418.72;;;10.14;64.92
71567;BME280;59403;47.456;19.120;2023-02-23T14:26:44;100422.47;;;10.12;66.30
71567;BME280;59403;47.456;19.120;2023-02-23T14:29:27;100433.59;;;10.15;64.36
71567;BME280;59403;47.456;19.120;2023-02-23T14:32:02;100420.81;;;10.11;65.48
71567;BME280;59403;47.456;19.120;2023-02-23T14:34:45;100429.94;;;10.16;64.53
71567;BME280;59403;47.456;19.120;2023-02-23T14:37:24;100426.00;;;10.20;64.99
71567;BME280;59403;47.456;19.120;2023-02-23T14:39:54;100420.94;;;10.27;64.59
71567;BME280;59403;47.456;19.120;2023-02-23T14:42:24;100430.34;;;10.21;65.08
71567;BME280;59403;47.456;19.120;2023-02-23T14:44:52;100423.28;;;10.30;64.71
71567;BME280;59403;47.456;19.120;2023-02-23T14:47:20;100421.81;;;10.36;64.06
71567;BME280;59403;47.456;19.120;2023-02-23T14:49:50;100415.88;;;10.34;65.08
71567;BME280;59403;47.456;19.120;2023-02-23T14:52:21;100409.09;;;10.39;65.33
71567;BME280;59403;47.456;19.120;2023-02-23T14:54:50;100409.00;;;10.49;64.43
71567;BME280;59403;47.456;19.120;2023-02-23T14:57:19;100419.09;;;10.45;64.49
71567;BME280;59403;47.456;19.120;2023-02-23T14:59:52;100417.28;;;10.46;65.82
71567;BME280;59403;47.456;19.120;2023-02-23T15:02:20;100417.19;;;10.38;65.26
71567;BME280;59403;47.456;19.120;2023-02-23T15:04:48;100408.75;;;10.34;64.26
71567;BME280;59403;47.456;19.120;2023-02-23T15:07:24;100414.34;;;10.31;64.39
71567;BME280;59403;47.456;19.120;2023-02-23T15:09:56;100412.34;;;10.25;65.68
71567;BME280;59403;47.456;19.120;2023-02-23T15:12:26;100412.09;;;10.18;64.62
71567;BME280;59403;47.456;19.120;2023-02-23T15:14:57;100402.44;;;10.09;65.73
71567;BME280;59403;47.456;19.120;2023-02-23T15:17:27;100406.66;;;10.02;66.44
71567;BME280;59403;47.456;19.120;2023-02-23T15:19:59;100406.44;;;9.96;66.20
71567;BME280;59403;47.456;19.120;2023-02-23T15:22:31;100402.72;;;9.89;66.69
71567;BME280;59403;47.456;19.120;2023-02-23T15:25:00;100399.41;;;9.87;66.79
71567;BME280;59403;47.456;19.120;2023-02-23T15:27:35;100400.56;;;9.84;66.86
71567;BME280;59403;47.456;19.120;2023-02-23T15:30:20;100405.31;;;9.81;67.21
71567;BME280;59403;47.456;19.120;2023-02-23T15:32:48;100397.97;;;9.75;67.43
71567;BME280;59403;47.456;19.120;2023-02-23T15:35:24;100394.38;;;9.76;67.85
71567;BME280;59403;47.456;19.120;2023-02-23T15:37:53;100400.78;;;9.73;67.67
71567;BME280;59403;47.456;19.120;2023-02-23T15:40:22;100401.75;;;9.72;68.10
71567;BME280;59403;47.456;19.120;2023-02-23T15:42:53;100397.91;;;9.67;68.40
71567;BME280;59403;47.456;19.120;2023-02-23T15:45:28;100396.84;;;9.60;68.48
71567;BME280;59403;47.456;19.120;2023-02-23T15:47:58;100399.19;;;9.63;68.53
71567;BME280;59403;47.456;19.120;2023-02-23T15:50:31;100393.00;;;9.54;69.40
71567;BME280;59403;47.456;19.120;2023-02-23T15:53:04;100390.66;;;9.51;69.27
71567;BME280;59403;47.456;19.120;2023-02-23T15:55:40;100387.62;;;9.46;69.56
71567;BME280;59403;47.456;19.120;2023-02-23T15:58:15;100388.09;;;9.42;70.00
71567;BME280;59403;47.456;19.120;2023-02-23T16:00:49;100389.22;;;9.39;70.50
71567;BME280;59403;47.456;19.120;2023-02-23T16:03:22;100391.31;;;9.36;70.91
71567;BME280;59403;47.456;19.120;2023-02-23T16:06:00;100393.13;;;9.35;71.05
71567;BME280;59403;47.456;19.120;2023-02-23T16:08:29;100390.94;;;9.31;71.02
71567;BME280;59403;47.456;19.120;2023-02-23T16:11:02;100386.91;;;9.27;71.27
71567;BME280;59403;47.456;19.120;2023-02-23T16:13:33;100392.50;;;9.24;71.63
71567;BME280;59403;47.456;19.120;2023-02-23T16:16:00;100400.75;;;9.21;71.97
71567;BME280;59403;47.456;19.120;2023-02-23T16:18:37;100400.06;;;9.18;71.82
71567;BME280;59403;47.456;19.120;2023-02-23T16:21:06;100396.03;;;9.14;72.05
71567;BME280;59403;47.456;19.120;2023-02-23T16:23:40;100391.06;;;9.11;72.31
71567;BME280;59403;47.456;19.120;2023-02-23T16:26:09;100396.50;;;9.10;72.55
71567;BME280;59403;47.456;19.120;2023-02-23T16:28:41;100394.13;;;9.07;72.85
71567;BME280;59403;47.456;19.120;2023-02-23T16:31:09;100396.22;;;9.03;73.19
71567;BME280;59403;47.456;19.120;2023-02-23T16:33:42;100404.31;;;9.02;73.33
71567;BME280;59403;47.456;19.120;2023-02-23T16:36:16;100400.16;;;8.99;73.67
71567;BME280;59403;47.456;19.120;2023-02-23T16:41:18;100404.91;;;8.96;74.30
71567;BME280;59403;47.456;19.120;2023-02-23T16:43:47;100399.63;;;8.96;74.36
71567;BME280;59403;47.456;19.120;2023-02-23T16:46:15;100397.28;;;8.93;74.73
71567;BME280;59403;47.456;19.120;2023-02-23T16:48:42;100395.28;;;8.95;74.99
71567;BME280;59403;47.456;19.120;2023-02-23T16:51:20;100400.72;;;8.93;75.43
71567;BME280;59403;47.456;19.120;2023-02-23T16:53:49;100403.66;;;8.90;75.78
71567;BME280;59403;47.456;19.120;2023-02-23T16:56:18;100401.03;;;8.90;75.73
71567;BME280;59403;47.456;19.120;2023-02-23T16:58:48;100399.50;;;8.88;76.02
71567;BME280;59403;47.456;19.120;2023-02-23T17:01:17;100400.63;;;8.85;76.28
71567;BME280;59403;47.456;19.120;2023-02-23T17:03:44;100406.06;;;8.84;76.68
71567;BME280;59403;47.456;19.120;2023-02-23T17:06:11;100398.31;;;8.82;76.75
71567;BME280;59403;47.456;19.120;2023-02-23T17:08:38;100404.38;;;8.83;77.00
71567;BME280;59403;47.456;19.120;2023-02-23T17:11:07;100394.13;;;8.80;77.26
71567;BME280;59403;47.456;19.120;2023-02-23T17:13:34;100403.84;;;8.79;77.54
71567;BME280;59403;47.456;19.120;2023-02-23T17:16:02;100396.22;;;8.76;77.48
71567;BME280;59403;47.456;19.120;2023-02-23T17:18:33;100396.06;;;8.78;77.50
71567;BME280;59403;47.456;19.120;2023-02-23T17:21:01;100392.31;;;8.80;77.59
71567;BME280;59403;47.456;19.120;2023-02-23T17:23:30;100381.06;;;8.78;77.55
71567;BME280;59403;47.456;19.120;2023-02-23T17:26:10;100383.72;;;8.78;77.57